MAPA DE AEROPUERTO

INFORMACIÓN METAR y TAF

METAR FOR LEMD
ADDS - METARS form results

(1119 UTC 07 May 2021)
Data provider http://aviationweather.gov/metar/data/
 
METAR text: LEMD 071100Z 18004KT 100V240 CAVOK 23/09 Q1020 NOSIG
Conditions at: LEMD (MADRID/BARAJAS , ES) observed 1100 UTC 07 May 2021
Temperature: 23.0°C (73°F)
Dewpoint: 9.0°C (48°F) [RH = 41%]
Pressure (altimeter): 30.12 inches Hg (1020.0 mb)
Winds: from the S (180 degrees) at 5 MPH (4 knots; 2.1 m/s)
Visibility: 6 or more miles (10+ km)
Ceiling: ceiling and visibility are OK
Clouds: unknown
Weather: no significant weather observed at this time

METAR text: LEMD 071030Z 17004KT 080V240 CAVOK 23/10 Q1020 NOSIG
Conditions at: LEMD (MADRID/BARAJAS , ES) observed 1030 UTC 07 May 2021
Temperature: 23.0°C (73°F)
Dewpoint: 10.0°C (50°F) [RH = 44%]
Pressure (altimeter): 30.12 inches Hg (1020.0 mb)
Winds: from the S (170 degrees) at 5 MPH (4 knots; 2.1 m/s)
Visibility: 6 or more miles (10+ km)
Ceiling: ceiling and visibility are OK
Clouds: unknown
Weather: no significant weather observed at this time

Forecast for: LEMD (MADRID/BARAJAS , ES)
Text: TAF LEMD 070500Z 0706/0812 VRB04KT CAVOK TX28/0715Z TN10/0706Z
Forecast period: 0600 to 1000 UTC 07 May 2021
Forecast type: FROM: standard forecast or significant change
Winds: variable direction winds at 5 MPH (4 knots; 2.1 m/s)
Visibility: 6 or more miles (10+ km)
Ceiling: unknown
Clouds: missing
Weather: no significant weather forecast for this period
Text: BECMG 0710/0712 23010KT
Forecast period: 1000 to 1800 UTC 07 May 2021
Forecast type: BECOMING: Conditions expected to become as follows by 1200 UTC 07 May 2021
Winds: from the SW (230 degrees) at 12 MPH (10 knots; 5.1 m/s)
Visibility: 6 or more miles (10+ km)
Ceiling: unknown
Clouds: missing
Weather: no significant weather forecast for this period
Text: BECMG 0718/0720 VRB04KT
Forecast period: 1800 UTC 07 May 2021 to 1200 UTC 08 May 2021
Forecast type: BECOMING: Conditions expected to become as follows by 2000 UTC 07 May 2021
Winds: variable direction winds at 5 MPH (4 knots; 2.1 m/s)
Visibility: 6 or more miles (10+ km)
Ceiling: unknown
Clouds: missing
Weather: no significant weather forecast for this period